Time;durP1;ratioP1;P1;durP2;ratioP2;P2;SDS_P1;SDS_P2;PMS_P1;PMS_P2;Temp;Humidity;BMP_temperature;BMP_pressure;BME280_temperature;BME280_humidity;BME280_pressure;Samples;Min_cycle;Max_cycle;Signal;HPM_P1;HPM_P2
2021/06/30 00:00:28;;;;;;;6.75;2.72;;;;;;;16.64;76.59;98528.84;3578419;40;20049;-65
2021/06/30 00:03:01;;;;;;;3.47;2.47;;;;;;;16.60;76.40;98528.53;3578496;40;20429;-64
2021/06/30 00:05:34;;;;;;;5.45;2.55;;;;;;;16.50;76.78;98541.69;3578471;40;20053;-64
2021/06/30 00:08:08;;;;;;;2.47;2.28;;;;;;;16.46;77.06;98543.19;3578188;40;20314;-66
2021/06/30 00:10:37;;;;;;;3.70;2.50;;;;;;;16.37;76.91;98540.09;3577309;40;20045;-64
2021/06/30 00:13:11;;;;;;;4.65;2.63;;;;;;;16.41;76.86;98537.75;3578664;40;20052;-65
2021/06/30 00:15:44;;;;;;;3.60;2.70;;;;;;;16.41;76.99;98529.72;3578267;40;20049;-65
2021/06/30 00:18:18;;;;;;;;;;;;;;;16.37;77.09;98512.59;3578763;40;20045;-64
2021/06/30 00:20:50;;;;;;;4.93;2.92;;;;;;;16.40;77.05;98509.44;3578349;40;20274;-64
2021/06/30 00:23:24;;;;;;;3.28;2.90;;;;;;;16.38;77.10;98498.22;3577111;40;20048;-64
2021/06/30 00:25:57;;;;;;;4.97;3.08;;;;;;;16.38;77.59;98492.88;3577961;40;20118;-64
2021/06/30 00:28:30;;;;;;;3.38;2.90;;;;;;;16.34;77.14;98490.69;3578376;40;20060;-65
2021/06/30 00:31:03;;;;;;;5.03;3.10;;;;;;;16.28;77.26;98491.63;3579130;40;20045;-64
2021/06/30 00:33:36;;;;;;;3.70;3.25;;;;;;;16.17;77.54;98489.81;3579851;40;20301;-65
2021/06/30 00:36:08;;;;;;;3.83;2.88;;;;;;;16.20;77.36;98492.00;3579808;40;20056;-65
2021/06/30 00:38:42;;;;;;;2.90;2.60;;;;;;;16.24;77.41;98489.66;3579668;40;20040;-65
2021/06/30 00:41:15;;;;;;;4.03;2.30;;;;;;;16.26;77.06;98495.59;3580824;40;20326;-66
2021/06/30 00:43:48;;;;;;;2.10;1.80;;;;;;;16.21;76.95;98503.50;3581957;40;20060;-66
2021/06/30 00:46:25;;;;;;;2.60;2.00;;;;;;;16.22;76.68;98500.59;3582759;40;20044;-65
2021/06/30 00:48:59;;;;;;;2.17;1.95;;;;;;;16.24;76.49;98493.13;3583397;40;20059;-65
2021/06/30 00:51:31;;;;;;;5.22;1.95;;;;;;;16.26;76.22;98492.91;3583026;40;20085;-64
2021/06/30 00:54:05;;;;;;;2.00;1.80;;;;;;;16.19;75.85;98485.03;3583236;40;20051;-65
2021/06/30 00:56:38;;;;;;;3.08;2.00;;;;;;;16.14;75.72;98492.16;3582496;40;20064;-65
2021/06/30 00:59:13;;;;;;;3.63;1.83;;;;;;;16.15;75.78;98488.44;3582448;40;20048;-65
2021/06/30 01:01:45;;;;;;;2.20;2.00;;;;;;;16.11;75.69;98488.09;3582235;40;20055;-65
2021/06/30 01:04:18;;;;;;;1.60;1.50;;;;;;;16.10;76.15;98497.13;3583174;40;20049;-64
2021/06/30 01:06:51;;;;;;;2.13;1.90;;;;;;;16.13;75.76;98499.34;3582384;40;20416;-64
2021/06/30 01:09:25;;;;;;;1.88;1.52;;;;;;;16.15;75.42;98505.22;3582783;40;20033;-65
2021/06/30 01:11:52;;;;;;;3.70;2.35;;;;;;;16.09;75.40;98499.00;3581464;40;20033;-64
2021/06/30 01:14:26;;;;;;;4.72;2.10;;;;;;;16.01;75.66;98510.03;3582631;40;20076;-64
2021/06/30 01:17:02;;;;;;;6.38;2.40;;;;;;;16.03;75.77;98510.59;3582233;40;20059;-65
2021/06/30 01:19:37;;;;;;;2.50;2.30;;;;;;;15.99;76.48;98519.28;3581825;40;20044;-65
2021/06/30 01:22:06;;;;;;;2.85;2.40;;;;;;;15.93;76.28;98514.91;3582466;40;20048;-65
2021/06/30 01:24:40;;;;;;;2.63;2.42;;;;;;;15.93;76.89;98509.56;3579413;40;20448;-65
2021/06/30 01:27:17;;;;;;;2.95;2.63;;;;;;;15.88;76.86;98506.78;3578406;40;20452;-65
2021/06/30 01:29:50;;;;;;;7.05;3.40;;;;;;;15.84;77.15;98507.28;3579635;40;20132;-65
2021/06/30 01:32:24;;;;;;;3.83;3.27;;;;;;;15.84;77.43;98511.78;3582615;40;20048;-65
2021/06/30 01:34:56;;;;;;;;;;;;;;;15.88;77.22;98512.94;3585968;40;20040;-64
2021/06/30 01:37:29;;;;;;;5.00;3.53;;;;;;;15.85;76.94;98503.56;3583716;40;19956;-66
2021/06/30 01:40:06;;;;;;;4.03;3.10;;;;;;;15.90;76.93;98486.03;3584755;40;20111;-66
2021/06/30 01:42:39;;;;;;;5.93;3.70;;;;;;;15.89;76.95;98485.25;3584043;40;20045;-65
2021/06/30 01:45:12;;;;;;;6.20;3.40;;;;;;;15.92;77.20;98478.59;3583515;40;20333;-65
2021/06/30 01:47:45;;;;;;;7.88;3.58;;;;;;;15.95;76.93;98484.28;3584170;40;20049;-65
2021/06/30 01:50:13;;;;;;;4.97;3.33;;;;;;;16.01;76.77;98493.22;3584572;40;20360;-64
2021/06/30 01:52:47;;;;;;;3.85;3.38;;;;;;;16.04;76.90;98495.41;3585661;40;20064;-64
2021/06/30 01:55:21;;;;;;;7.72;3.72;;;;;;;16.01;77.00;98496.69;3584661;40;20394;-66
2021/06/30 01:57:50;;;;;;;5.43;4.35;;;;;;;15.99;77.07;98503.28;3582720;40;20100;-65
2021/06/30 02:00:23;;;;;;;9.27;3.90;;;;;;;15.99;76.68;98496.09;3584598;40;20060;-64
2021/06/30 02:02:55;;;;;;;7.63;3.88;;;;;;;16.02;76.70;98500.16;3585211;40;20049;-65
2021/06/30 02:05:31;;;;;;;7.68;4.30;;;;;;;16.01;77.02;98488.69;3584293;40;20073;-65
2021/06/30 02:08:04;;;;;;;4.97;4.28;;;;;;;16.01;76.80;98493.22;3583640;40;20044;-65
2021/06/30 02:10:38;;;;;;;6.78;4.22;;;;;;;16.00;76.81;98502.25;3583949;40;20048;-65
2021/06/30 02:13:11;;;;;;;6.53;4.68;;;;;;;15.94;76.56;98508.53;3583448;40;20049;-64
2021/06/30 02:15:41;;;;;;;6.85;4.53;;;;;;;15.92;76.70;98511.44;3583625;40;20041;-64
2021/06/30 02:18:13;;;;;;;7.18;4.95;;;;;;;15.85;76.88;98497.41;3582825;40;20044;-65
2021/06/30 02:20:46;;;;;;;5.68;5.18;;;;;;;15.88;77.11;98501.44;3584242;40;20045;-65
2021/06/30 02:23:19;;;;;;;7.50;5.95;;;;;;;15.83;77.31;98512.81;3584426;40;20414;-65
2021/06/30 02:25:48;;;;;;;6.45;5.82;;;;;;;15.83;77.28;98510.16;3582882;40;20037;-64
2021/06/30 02:28:21;;;;;;;9.77;7.30;;;;;;;15.74;77.36;98507.03;3582650;40;20056;-65
2021/06/30 02:30:55;;;;;;;8.85;6.75;;;;;;;15.76;77.45;98504.16;3583086;40;20033;-65
2021/06/30 02:33:27;;;;;;;;;;;;;;;15.76;77.44;98507.63;3584874;40;20045;-64
2021/06/30 02:36:00;;;;;;;8.25;7.28;;;;;;;15.80;77.45;98513.31;3584219;40;19941;-64
2021/06/30 02:38:33;;;;;;;7.32;6.63;;;;;;;15.77;77.31;98506.56;3583794;40;20037;-65
2021/06/30 02:41:07;;;;;;;10.98;7.28;;;;;;;15.82;77.02;98505.88;3582770;40;20047;-64
2021/06/30 02:43:41;;;;;;;10.85;7.05;;;;;;;15.83;77.12;98507.47;3584229;40;20387;-64
2021/06/30 02:46:14;;;;;;;9.70;6.95;;;;;;;15.87;77.05;98518.50;3582686;40;20032;-64
2021/06/30 02:48:42;;;;;;;10.75;7.07;;;;;;;15.87;76.78;98510.50;3582341;40;20476;-64
2021/06/30 02:51:14;;;;;;;8.25;6.80;;;;;;;15.88;76.96;98514.78;3583130;40;20048;-64
2021/06/30 02:53:47;;;;;;;8.40;6.47;;;;;;;15.88;76.53;98518.28;3579192;40;20377;-64
2021/06/30 02:56:21;;;;;;;6.33;5.63;;;;;;;15.82;76.42;98517.34;3577816;40;20044;-63
2021/06/30 02:58:54;;;;;;;6.68;4.60;;;;;;;15.78;76.31;98524.19;3578916;40;20303;-64
2021/06/30 03:01:27;;;;;;;4.78;4.30;;;;;;;15.68;76.10;98523.97;3579238;40;20314;-63
2021/06/30 03:03:59;;;;;;;8.00;3.95;;;;;;;15.72;76.73;98522.47;3579035;40;20052;-64
2021/06/30 03:06:32;;;;;;;4.30;3.77;;;;;;;15.74;76.64;98530.22;3578648;40;20103;-64
2021/06/30 03:09:05;;;;;;;4.63;3.80;;;;;;;15.72;76.38;98522.47;3578899;40;20299;-63
2021/06/30 03:11:39;;;;;;;3.38;3.08;;;;;;;15.74;76.35;98524.88;3578836;40;20045;-63
2021/06/30 03:14:12;;;;;;;4.72;3.63;;;;;;;15.79;75.98;98517.78;3578827;40;20049;-64
2021/06/30 03:16:44;;;;;;;5.68;3.38;;;;;;;15.81;76.03;98526.38;3578569;40;20060;-64
2021/06/30 03:19:18;;;;;;;4.30;3.25;;;;;;;15.78;75.84;98528.69;3578633;40;20049;-63
2021/06/30 03:21:51;;;;;;;5.05;3.15;;;;;;;15.80;75.89;98527.44;3578122;40;20053;-63
2021/06/30 03:24:23;;;;;;;3.95;2.67;;;;;;;15.81;75.71;98529.06;3578086;40;20021;-63
2021/06/30 03:26:57;;;;;;;4.85;3.00;;;;;;;15.83;75.56;98534.13;3578555;40;20111;-65
2021/06/30 03:29:25;;;;;;;5.72;3.22;;;;;;;15.82;75.74;98540.53;3578631;40;20115;-65
2021/06/30 03:31:58;;;;;;;3.67;3.30;;;;;;;15.83;75.67;98531.47;3578574;40;20322;-65
2021/06/30 03:34:30;;;;;;;4.55;3.13;;;;;;;15.83;75.50;98529.63;3578616;40;20060;-65
2021/06/30 03:37:03;;;;;;;4.93;3.22;;;;;;;15.83;75.24;98532.28;3578288;40;20060;-64
2021/06/30 03:39:31;;;;;;;3.20;2.95;;;;;;;15.82;75.12;98530.66;3577578;40;20119;-63
2021/06/30 03:42:00;;;;;;;7.05;4.15;;;;;;;15.92;75.47;98532.75;3578490;40;20048;-62
2021/06/30 03:44:33;;;;;;;3.70;3.33;;;;;;;15.89;74.77;98535.88;3577983;40;20044;-64
2021/06/30 03:47:06;;;;;;;4.65;3.13;;;;;;;15.87;75.08;98531.81;3577440;40;20067;-65
2021/06/30 03:49:38;;;;;;;13.27;7.88;;;;;;;15.85;74.82;98532.06;3578690;40;20041;-65
2021/06/30 03:52:11;;;;;;;5.53;2.90;;;;;;;15.89;74.72;98537.75;3578574;40;20052;-64
2021/06/30 03:54:44;;;;;;;4.27;2.87;;;;;;;15.91;75.09;98544.44;3578664;40;20036;-64
2021/06/30 03:57:18;;;;;;;6.28;2.88;;;;;;;15.90;74.65;98548.16;3577487;40;20056;-63
2021/06/30 03:59:50;;;;;;;2.92;2.72;;;;;;;15.96;74.56;98544.59;3578460;40;20045;-64
2021/06/30 04:02:23;;;;;;;5.38;2.78;;;;;;;15.93;74.59;98561.03;3578443;40;20041;-64
2021/06/30 04:04:56;;;;;;;5.07;3.03;;;;;;;15.93;74.52;98554.91;3578694;40;20047;-64
2021/06/30 04:07:28;;;;;;;3.13;2.63;;;;;;;15.94;74.63;98556.50;3579692;40;20074;-64
2021/06/30 04:10:01;;;;;;;4.07;3.17;;;;;;;15.95;74.52;98555.47;3579094;40;20397;-64
2021/06/30 04:12:35;;;;;;;3.25;2.83;;;;;;;15.94;74.38;98559.97;3580077;40;20052;-63
2021/06/30 04:15:09;;;;;;;4.07;2.65;;;;;;;15.87;74.61;98558.47;3579277;40;20029;-64
2021/06/30 04:17:38;;;;;;;5.85;2.72;;;;;;;15.87;74.69;98561.94;3579836;40;20045;-65
2021/06/30 04:20:11;;;;;;;3.40;3.10;;;;;;;15.82;74.21;98557.31;3579976;40;20056;-64
2021/06/30 04:22:44;;;;;;;3.97;2.65;;;;;;;15.83;74.80;98548.28;3579875;40;20271;-63
2021/06/30 04:25:16;;;;;;;8.98;2.95;;;;;;;15.90;74.61;98556.16;3580202;40;20394;-64
2021/06/30 04:27:50;;;;;;;4.15;3.00;;;;;;;15.90;74.18;98545.50;3579712;40;20061;-64
2021/06/30 04:30:23;;;;;;;3.65;2.90;;;;;;;15.90;73.92;98548.16;3580169;40;20044;-64
2021/06/30 04:32:56;;;;;;;6.88;2.78;;;;;;;15.84;74.60;98549.91;3578757;40;20048;-64
2021/06/30 04:35:28;;;;;;;2.90;2.70;;;;;;;15.87;74.17;98545.97;3579929;40;20045;-64
2021/06/30 04:38:01;;;;;;;4.30;2.90;;;;;;;15.93;74.13;98534.38;3578846;40;20085;-64
2021/06/30 04:40:34;;;;;;;4.30;2.88;;;;;;;15.90;74.57;98545.50;3578921;40;20053;-64
2021/06/30 04:43:08;;;;;;;4.18;2.78;;;;;;;15.93;74.42;98541.56;3580069;40;20052;-65
2021/06/30 04:45:41;;;;;;;5.95;3.22;;;;;;;15.94;74.66;98538.66;3579702;40;20403;-65
2021/06/30 04:48:13;;;;;;;3.58;3.08;;;;;;;15.96;74.54;98533.91;3579382;40;20064;-65
2021/06/30 04:50:46;;;;;;;3.30;3.10;;;;;;;15.92;75.01;98538.09;3578650;40;20033;-65
2021/06/30 04:53:20;;;;;;;3.40;3.10;;;;;;;16.00;75.05;98531.56;3579681;40;20049;-66
2021/06/30 04:55:54;;;;;;;3.40;3.10;;;;;;;16.01;74.63;98530.53;3579364;40;20052;-65
2021/06/30 04:58:28;;;;;;;4.40;3.22;;;;;;;15.99;75.00;98532.63;3579833;40;20045;-64
2021/06/30 05:01:00;;;;;;;5.15;3.80;;;;;;;16.05;75.12;98529.84;3579645;40;20057;-65
2021/06/30 05:03:33;;;;;;;3.85;3.20;;;;;;;16.09;75.05;98520.31;3579958;40;20055;-65
2021/06/30 05:06:06;;;;;;;5.97;2.88;;;;;;;16.06;75.29;98517.31;3579529;40;20563;-65
2021/06/30 05:08:38;;;;;;;3.55;3.17;;;;;;;16.12;75.00;98518.22;3580459;40;20053;-64
2021/06/30 05:11:11;;;;;;;5.75;3.20;;;;;;;16.09;75.17;98512.31;3580171;40;20044;-65
2021/06/30 05:13:45;;;;;;;2.87;2.67;;;;;;;16.05;75.16;98516.50;3580317;40;20053;-65
2021/06/30 05:16:18;;;;;;;3.17;2.88;;;;;;;16.04;75.41;98508.72;3579532;40;20041;-65
2021/06/30 05:18:53;;;;;;;3.00;2.80;;;;;;;16.03;75.83;98515.91;3580029;40;20043;-65
2021/06/30 05:21:26;;;;;;;2.95;2.55;;;;;;;16.07;75.50;98521.59;3579689;40;20102;-64
2021/06/30 05:23:59;;;;;;;5.18;2.97;;;;;;;16.08;75.48;98521.38;3579672;40;20142;-66
2021/06/30 05:26:31;;;;;;;3.65;2.70;;;;;;;16.05;75.54;98531.69;3579579;40;20052;-65
2021/06/30 05:29:05;;;;;;;4.72;3.00;;;;;;;16.07;75.48;98538.41;3579592;40;20045;-65
2021/06/30 05:31:38;;;;;;;3.47;2.60;;;;;;;16.06;75.51;98536.78;3579655;40;20048;-64
2021/06/30 05:34:11;;;;;;;4.65;2.60;;;;;;;16.04;75.48;98536.22;3578460;40;20136;-65
2021/06/30 05:36:48;;;;;;;3.92;2.55;;;;;;;16.03;75.24;98539.09;3579254;40;20049;-63
2021/06/30 05:39:16;;;;;;;2.88;2.30;;;;;;;16.06;75.09;98538.66;3579701;40;20037;-64
2021/06/30 05:41:50;;;;;;;3.97;2.78;;;;;;;15.97;75.18;98540.88;3579476;40;20024;-64
2021/06/30 05:44:24;;;;;;;3.85;2.70;;;;;;;15.92;74.96;98551.41;3579478;40;20394;-64
2021/06/30 05:46:57;;;;;;;2.70;2.50;;;;;;;15.96;74.73;98546.41;3579481;40;20126;-64
2021/06/30 05:49:24;;;;;;;3.72;2.80;;;;;;;16.03;75.25;98549.78;3579820;40;20053;-65
2021/06/30 05:51:57;;;;;;;2.33;2.10;;;;;;;16.05;74.69;98547.69;3579523;40;20061;-66
2021/06/30 05:54:30;;;;;;;3.08;2.70;;;;;;;16.06;74.54;98551.97;3579332;40;20049;-64
2021/06/30 05:57:03;;;;;;;5.20;2.60;;;;;;;16.02;74.58;98556.97;3579097;40;20045;-65
2021/06/30 05:59:32;;;;;;;2.47;2.28;;;;;;;15.96;73.89;98554.41;3579366;40;20059;-66
2021/06/30 06:02:04;;;;;;;5.55;2.95;;;;;;;15.93;73.67;98555.69;3578437;40;20425;-66
2021/06/30 06:04:38;;;;;;;3.72;2.53;;;;;;;15.89;73.51;98553.75;3579189;40;20055;-66
2021/06/30 06:07:10;;;;;;;2.40;2.20;;;;;;;15.80;73.61;98555.94;3579326;40;20049;-65
2021/06/30 06:09:43;;;;;;;5.25;3.10;;;;;;;15.82;73.83;98556.50;3578099;40;20037;-65
2021/06/30 06:12:16;;;;;;;3.67;2.47;;;;;;;15.85;73.31;98559.53;3579237;40;20045;-65
2021/06/30 06:14:50;;;;;;;3.25;2.92;;;;;;;15.79;73.54;98560.44;3578438;40;20057;-65
2021/06/30 06:17:23;;;;;;;5.45;2.67;;;;;;;15.81;73.60;98561.03;3577996;40;20059;-65
2021/06/30 06:19:56;;;;;;;3.35;2.60;;;;;;;15.84;73.48;98559.78;3579112;40;20044;-65
2021/06/30 06:22:28;;;;;;;6.43;3.53;;;;;;;15.90;73.83;98560.69;3579085;40;20389;-65
2021/06/30 06:25:01;;;;;;;3.30;2.78;;;;;;;15.93;73.71;98562.88;3579314;40;20045;-65
2021/06/30 06:27:35;;;;;;;2.67;2.47;;;;;;;15.95;73.73;98566.94;3578366;40;20056;-65
2021/06/30 06:30:11;;;;;;;3.25;2.80;;;;;;;15.94;73.86;98567.97;3579312;40;20126;-66
2021/06/30 06:32:43;;;;;;;4.03;2.88;;;;;;;16.01;73.38;98567.88;3579248;40;20052;-65
2021/06/30 06:35:16;;;;;;;5.38;2.85;;;;;;;16.02;73.37;98570.28;3578441;40;20041;-65
2021/06/30 06:37:49;;;;;;;2.60;2.40;;;;;;;16.06;72.89;98566.13;3579038;40;20055;-66
2021/06/30 06:40:22;;;;;;;4.30;2.57;;;;;;;16.23;72.82;98568.06;3579029;40;20806;-65
2021/06/30 06:42:55;;;;;;;3.80;3.40;;;;;;;16.37;72.60;98572.09;3578939;40;20283;-65
2021/06/30 06:45:29;;;;;;;4.97;2.90;;;;;;;16.35;72.25;98566.19;3578890;40;20406;-65
2021/06/30 06:48:02;;;;;;;5.25;3.03;;;;;;;16.43;72.32;98570.34;3578866;40;20049;-65
2021/06/30 06:50:35;;;;;;;5.38;3.10;;;;;;;16.39;72.20;98571.88;3579011;40;20338;-64
2021/06/30 06:53:08;;;;;;;2.97;2.63;;;;;;;16.38;72.31;98571.06;3579074;40;20067;-65
2021/06/30 06:55:41;;;;;;;3.65;3.30;;;;;;;16.50;71.86;98566.50;3579071;40;20399;-65
2021/06/30 06:58:13;;;;;;;2.70;2.50;;;;;;;16.60;72.25;98565.88;3578629;40;20045;-65
2021/06/30 07:00:48;;;;;;;3.42;2.63;;;;;;;16.58;71.71;98570.66;3582825;40;20049;-65
2021/06/30 07:03:21;;;;;;;2.60;2.38;;;;;;;16.58;70.92;98566.13;3584407;40;20056;-65
2021/06/30 07:05:50;;;;;;;2.47;2.17;;;;;;;16.63;71.16;98565.41;3580934;40;20442;-64
2021/06/30 07:08:23;;;;;;;3.03;2.23;;;;;;;16.53;70.74;98560.69;3579151;40;20048;-64
2021/06/30 07:10:56;;;;;;;3.72;2.20;;;;;;;16.57;70.51;98555.66;3579499;40;20044;-65
2021/06/30 07:13:28;;;;;;;3.60;2.40;;;;;;;16.43;70.30;98562.34;3578990;40;20048;-65
2021/06/30 07:16:04;;;;;;;3.30;2.30;;;;;;;16.38;70.55;98565.72;3578696;40;20134;-64
2021/06/30 07:18:37;;;;;;;3.53;2.42;;;;;;;16.33;70.23;98561.09;3578816;40;20052;-65
2021/06/30 07:21:13;;;;;;;4.38;2.10;;;;;;;16.37;70.00;98566.78;3579070;40;20052;-65
2021/06/30 07:23:45;;;;;;;3.03;2.20;;;;;;;16.38;70.34;98564.91;3578740;40;20102;-65
2021/06/30 07:26:18;;;;;;;3.13;2.70;;;;;;;16.51;70.39;98572.66;3577724;40;20049;-64
2021/06/30 07:28:52;;;;;;;2.95;2.20;;;;;;;16.52;70.04;98567.06;3577759;40;20044;-65
2021/06/30 07:31:26;;;;;;;4.25;2.10;;;;;;;16.49;69.50;98570.22;3577978;40;20044;-64
2021/06/30 07:33:59;;;;;;;3.38;2.50;;;;;;;16.67;69.55;98571.91;3577900;40;20053;-65
2021/06/30 07:36:32;;;;;;;2.95;2.50;;;;;;;16.78;69.34;98571.06;3578596;40;20052;-64
2021/06/30 07:39:05;;;;;;;3.87;3.03;;;;;;;16.77;69.66;98574.78;3579089;40;20045;-64
2021/06/30 07:41:37;;;;;;;4.80;3.53;;;;;;;16.86;69.97;98577.91;3580011;40;20649;-64
2021/06/30 07:44:10;;;;;;;9.73;4.05;;;;;;;16.97;69.64;98581.56;3580066;40;20049;-65
2021/06/30 07:46:39;;;;;;;2.97;2.17;;;;;;;17.09;69.34;98576.97;3579729;40;20045;-64
2021/06/30 07:49:07;;;;;;;3.85;2.10;;;;;;;17.33;68.72;98585.66;3578754;40;20030;-64
2021/06/30 07:51:35;;;;;;;2.97;2.00;;;;;;;17.57;67.80;98578.31;3580242;40;20287;-63
2021/06/30 07:54:03;;;;;;;3.67;2.55;;;;;;;17.72;67.58;98577.75;3580225;40;20406;-64
2021/06/30 07:56:37;;;;;;;4.38;2.10;;;;;;;17.94;66.79;98583.19;3579933;40;20453;-65
2021/06/30 07:59:08;;;;;;;3.75;2.85;;;;;;;18.10;66.64;98586.88;3580827;40;20052;-65
2021/06/30 08:01:36;;;;;;;5.45;2.80;;;;;;;18.14;66.33;98588.81;3580085;40;20052;-65
2021/06/30 08:04:06;;;;;;;3.47;2.47;;;;;;;18.12;65.89;98582.06;3580595;40;20386;-65
2021/06/30 08:06:35;;;;;;;2.80;2.38;;;;;;;18.00;66.40;98582.19;3579484;40;20051;-66
2021/06/30 08:09:04;;;;;;;2.70;1.95;;;;;;;17.91;66.07;98579.13;3579868;40;20410;-65
2021/06/30 08:11:40;;;;;;;2.38;1.90;;;;;;;17.75;66.17;98578.06;3579095;40;20060;-65
2021/06/30 08:14:08;;;;;;;3.22;1.75;;;;;;;17.65;65.28;98583.25;3579977;40;20045;-65
2021/06/30 08:16:36;;;;;;;3.47;1.90;;;;;;;17.61;65.62;98583.97;3579602;40;20048;-66
2021/06/30 08:19:05;;;;;;;3.08;1.85;;;;;;;17.76;65.27;98569.03;3581645;40;20084;-66
2021/06/30 08:21:32;;;;;;;3.70;1.70;;;;;;;17.77;64.25;98575.97;3586441;40;20073;-64
2021/06/30 08:24:00;;;;;;;2.95;1.58;;;;;;;17.92;63.91;98572.72;3586880;40;20394;-64
2021/06/30 08:26:28;;;;;;;1.90;1.70;;;;;;;18.10;64.11;98568.97;3583816;40;20064;-66
2021/06/30 08:28:56;;;;;;;2.33;1.52;;;;;;;18.23;63.52;98568.59;3587214;40;20421;-65
2021/06/30 08:31:23;;;;;;;2.30;1.73;;;;;;;18.44;62.76;98575.00;3583145;40;20052;-65
2021/06/30 08:33:51;;;;;;;1.90;1.58;;;;;;;18.49;62.38;98567.06;3579030;40;20045;-65
2021/06/30 08:36:20;;;;;;;2.22;1.55;;;;;;;18.52;61.79;98569.22;3578721;40;20053;-66
2021/06/30 08:38:48;;;;;;;2.78;1.40;;;;;;;18.45;61.36;98565.09;3579926;40;20045;-66
2021/06/30 08:41:17;;;;;;;2.95;1.40;;;;;;;18.45;61.52;98571.28;3582731;40;20060;-64
2021/06/30 08:43:46;;;;;;;4.13;1.80;;;;;;;18.41;61.03;98567.50;3586235;40;20307;-65
2021/06/30 08:46:18;;;;;;;2.50;1.40;;;;;;;18.29;62.08;98564.13;3586146;40;20053;-66
2021/06/30 08:48:47;;;;;;;3.90;1.80;;;;;;;18.23;62.02;98573.13;3582666;40;20053;-65
2021/06/30 08:51:20;;;;;;;2.78;1.98;;;;;;;17.97;62.34;98567.44;3583675;40;20048;-67
2021/06/30 08:53:50;;;;;;;;;;;;;;;17.88;62.19;98573.44;3581530;40;20071;-65
2021/06/30 08:56:20;;;;;;;3.60;1.80;;;;;;;17.72;61.78;98575.88;3579526;40;19933;-66
2021/06/30 08:58:50;;;;;;;2.15;1.60;;;;;;;17.67;62.04;98574.97;3578737;40;20362;-65
2021/06/30 09:01:17;;;;;;;4.10;1.50;;;;;;;17.78;62.19;98566.91;3578695;40;20080;-65
2021/06/30 09:03:50;;;;;;;1.98;1.80;;;;;;;18.01;61.78;98563.22;3579625;40;20081;-65
2021/06/30 09:06:18;;;;;;;2.92;1.75;;;;;;;18.25;61.83;98565.69;3579363;40;20052;-65
2021/06/30 09:09:01;;;;;;;2.72;1.58;;;;;;;18.60;60.82;98556.47;3578691;40;20077;-65
2021/06/30 09:11:31;;;;;;;5.88;3.40;;;;;;;18.80;60.82;98552.16;3579904;40;20402;-65
2021/06/30 09:14:21;;;;;;;2.60;2.15;;;;;;;19.04;60.03;98554.53;3579125;40;20040;-65
2021/06/30 09:16:57;;;;;;;2.22;1.60;;;;;;;19.10;59.58;98563.44;3583067;40;20405;-66
2021/06/30 09:19:49;;;;;;;1.83;1.70;;;;;;;19.04;59.10;98559.91;3585041;40;20041;-65
2021/06/30 09:22:18;;;;;;;2.45;1.30;;;;;;;18.87;58.20;98560.00;3583035;40;20073;-66
2021/06/30 09:24:48;;;;;;;2.60;1.38;;;;;;;18.84;57.90;98565.06;3585243;40;20052;-66
2021/06/30 09:27:18;;;;;;;1.58;1.42;;;;;;;18.73;58.09;98564.94;3585353;40;20080;-66
2021/06/30 09:29:47;;;;;;;1.40;1.30;;;;;;;18.70;57.61;98559.28;3582885;40;20066;-65
2021/06/30 09:32:17;;;;;;;1.52;1.17;;;;;;;18.69;57.81;98571.81;3583605;40;20052;-64
2021/06/30 09:34:45;;;;;;;2.58;2.33;;;;;;;18.76;57.97;98563.63;3583323;40;20045;-66
2021/06/30 09:37:13;;;;;;;1.83;1.35;;;;;;;18.99;57.70;98562.53;3584080;40;20100;-64
2021/06/30 09:39:56;;;;;;;2.85;1.73;;;;;;;19.37;57.16;98558.06;3582458;40;20030;-65
2021/06/30 09:42:31;;;;;;;1.83;1.38;;;;;;;19.38;56.16;98551.63;3583883;40;20055;-65
2021/06/30 09:45:11;;;;;;;1.73;1.30;;;;;;;19.55;56.10;98549.59;3583188;40;20080;-65
2021/06/30 09:47:45;;;;;;;2.25;1.17;;;;;;;19.73;55.52;98556.47;3583225;40;20041;-65
2021/06/30 09:50:13;;;;;;;;;;;;;;;19.74;54.65;98556.22;3583056;40;20041;-64
2021/06/30 09:52:41;;;;;;;5.40;1.15;;;;;;;19.83;53.96;98555.72;3583289;40;20190;-66
2021/06/30 09:55:30;;;;;;;1.13;0.80;;;;;;;19.68;53.68;98557.25;3582545;40;20048;-65
2021/06/30 09:58:00;;;;;;;1.98;1.08;;;;;;;19.71;53.86;98563.97;3583845;40;20044;-67
2021/06/30 10:00:29;;;;;;;2.53;0.90;;;;;;;19.91;54.01;98557.94;3580071;40;20330;-67
2021/06/30 10:02:58;;;;;;;4.13;1.27;;;;;;;20.06;54.22;98552.66;3577583;40;20411;-65
2021/06/30 10:05:31;;;;;;;3.63;1.27;;;;;;;20.21;53.58;98552.75;3578712;40;20310;-65
2021/06/30 10:08:10;;;;;;;3.72;1.40;;;;;;;20.17;54.11;98554.34;3579294;40;20325;-66
2021/06/30 10:10:40;;;;;;;2.35;1.50;;;;;;;20.23;54.04;98549.78;3579988;40;20504;-66
2021/06/30 10:13:08;;;;;;;1.85;1.10;;;;;;;20.25;54.14;98553.84;3578503;40;20103;-66
2021/06/30 10:15:36;;;;;;;4.40;1.33;;;;;;;20.15;54.65;98555.66;3579557;40;20092;-66
2021/06/30 10:18:05;;;;;;;1.48;1.17;;;;;;;20.08;54.49;98549.69;3578812;40;20045;-66
2021/06/30 10:20:41;;;;;;;4.90;1.40;;;;;;;20.11;54.37;98558.03;3579337;40;20410;-66
2021/06/30 10:23:09;;;;;;;2.80;1.25;;;;;;;20.19;54.61;98562.13;3579585;40;20047;-66
2021/06/30 10:25:37;;;;;;;8.20;1.30;;;;;;;20.06;54.75;98559.91;3579672;40;20048;-65
2021/06/30 10:28:07;;;;;;;1.45;1.10;;;;;;;19.99;54.70;98554.75;3578178;40;20056;-65
2021/06/30 10:30:35;;;;;;;1.45;1.35;;;;;;;20.03;54.92;98558.53;3579486;40;20045;-64
2021/06/30 10:33:04;;;;;;;4.05;1.52;;;;;;;20.13;54.53;98560.50;3579359;40;20048;-63
2021/06/30 10:35:45;;;;;;;2.58;1.20;;;;;;;20.20;54.00;98547.63;3579250;40;20106;-65
2021/06/30 10:38:13;;;;;;;3.53;1.20;;;;;;;20.37;54.15;98544.75;3578012;40;20053;-64
2021/06/30 10:40:40;;;;;;;1.27;0.93;;;;;;;20.48;53.10;98549.91;3578167;40;20057;-65
2021/06/30 10:43:12;;;;;;;1.02;0.93;;;;;;;20.53;53.21;98546.44;3578116;40;20053;-64
2021/06/30 10:45:41;;;;;;;3.33;1.50;;;;;;;20.78;53.38;98559.16;3579172;40;20048;-64
2021/06/30 10:48:13;;;;;;;1.02;1.00;;;;;;;20.85;52.10;98557.00;3578855;40;20041;-64
2021/06/30 10:50:43;;;;;;;2.25;1.05;;;;;;;20.80;52.38;98550.81;3578905;40;20326;-64
2021/06/30 10:53:35;;;;;;;1.63;1.10;;;;;;;20.68;52.54;98543.81;3577972;40;20056;-64
2021/06/30 10:56:06;;;;;;;3.28;1.40;;;;;;;20.57;53.84;98541.34;3576463;40;20044;-63
2021/06/30 10:58:42;;;;;;;2.47;1.10;;;;;;;20.50;53.88;98542.41;3578084;40;20055;-64
2021/06/30 11:01:15;;;;;;;1.45;1.35;;;;;;;20.32;54.60;98542.84;3579046;40;20088;-65
2021/06/30 11:03:49;;;;;;;2.83;1.20;;;;;;;20.06;54.71;98549.16;3578707;40;20060;-64
2021/06/30 11:06:38;;;;;;;;;;;;;;;19.93;54.67;98545.88;3578937;40;20044;-65
2021/06/30 11:09:08;;;;;;;5.45;1.60;;;;;;;19.85;55.30;98545.56;3577812;40;19969;-64
2021/06/30 11:11:57;;;;;;;2.92;1.20;;;;;;;19.73;55.25;98546.56;3578616;40;20088;-63
2021/06/30 11:14:44;;;;;;;0.85;0.85;;;;;;;19.69;55.43;98540.09;3578591;40;20076;-64
2021/06/30 11:17:31;;;;;;;2.95;1.10;;;;;;;19.54;55.71;98542.63;3578448;40;20053;-65
2021/06/30 11:19:59;;;;;;;1.30;1.20;;;;;;;19.38;55.88;98535.53;3578726;40;20040;-64
2021/06/30 11:22:32;;;;;;;1.25;1.02;;;;;;;19.27;56.29;98540.84;3578408;40;20052;-65
2021/06/30 11:25:02;;;;;;;2.17;1.30;;;;;;;19.48;56.38;98546.34;3578859;40;20056;-65
2021/06/30 11:27:45;;;;;;;1.60;1.00;;;;;;;19.61;56.16;98539.75;3578196;40;20041;-65
2021/06/30 11:30:29;;;;;;;2.30;1.10;;;;;;;19.81;55.92;98544.47;3578644;40;20056;-65
2021/06/30 11:32:57;;;;;;;1.40;1.20;;;;;;;20.03;55.33;98540.56;3578415;40;20051;-65
2021/06/30 11:35:32;;;;;;;4.07;1.52;;;;;;;20.28;54.69;98537.19;3577600;40;20053;-64
2021/06/30 11:38:05;;;;;;;6.18;1.42;;;;;;;20.53;54.25;98541.06;3578262;40;20386;-64
2021/06/30 11:40:35;;;;;;;2.38;1.30;;;;;;;20.70;52.93;98543.56;3578469;40;20052;-64
2021/06/30 11:43:12;;;;;;;3.15;1.90;;;;;;;20.79;52.70;98541.97;3578621;40;20310;-65
2021/06/30 11:45:41;;;;;;;1.80;1.13;;;;;;;20.86;51.61;98542.53;3578855;40;20061;-64
2021/06/30 11:48:11;;;;;;;5.63;1.63;;;;;;;20.94;51.20;98542.00;3578268;40;20045;-64
2021/06/30 11:50:49;;;;;;;2.15;1.50;;;;;;;21.13;51.15;98542.28;3579740;40;20377;-64
2021/06/30 11:53:17;;;;;;;2.15;1.45;;;;;;;21.00;51.11;98534.75;3581964;40;20059;-64
2021/06/30 11:55:45;;;;;;;4.25;1.95;;;;;;;21.03;50.88;98531.53;3582395;40;20059;-64
2021/06/30 11:58:13;;;;;;;2.40;1.60;;;;;;;20.88;51.21;98532.31;3582598;40;20085;-64